Aeroporto :
LOGIN :

Iscrizione | Disclaimer

   EN    FR    IT 

 










Sommario :    VFR   VFR Marginale   IFR   IFR Intensivo   IFR Molto Intensivo
Visibilità : 
Base nubi : 
>= 8 km
>= 3000ft
5 / 8 km
1000 / 3000 ft
1500m / 5 km
500 / 1000 ft
800 / 1500m
200 / 500 ft
< 800m
< 200 ft
Simboli :   Temporali  Nebbia  Neve Forte  Precipitazioni Forti  Vento > 20 kt
SIGMETs :   Varie  Temporali  Ghiacco  Turbolenza  Onda orograficha  Ceneri Vulcaniche






- Altitudine del aeroporto : 870 ft
- Codice IATA : ETZ


LFJL - Metz Nancy Lorraine

ULTIMO METAR :
  • 281400Z AUTO 11005KT CAVOK 17/08 Q1022 NOSIG

METARs OBSOLETI :
  • 281330Z AUTO 10005KT 070V140 CAVOK 17/09 Q1022 NOSIG
  • 281300Z AUTO 10003KT 020V170 9999 SCT025 SCT190 BKN230 16/10 Q1022 NOSIG
  • 281230Z AUTO 08004KT 030V120 9999 SCT022 SCT190 16/10 Q1023 NOSIG
  • 281200Z AUTO 13005KT 080V160 9999 SCT020 SCT200 16/11 Q1023 NOSIG
  • 281130Z AUTO 09004KT 040V160 CAVOK 15/10 Q1023 NOSIG

TAF TAF LFJL
Valido dal 28 a 12 ore il 29 a 12 ore UTC


281114Z 2812/2912 10005KT 9999 SCT025 BKN180
BECMG 2903/2906 19010KT
TEMPO 2908/2912 26012KT RA BKN012 OVC040



MetMap, La meteo Aeronautica in un colpo d'occhio ! - Copyright ORBIFLY Dicembre 2007 - Disclaimer

ORBIFLY MET'MAP TEAM :

Programmazione e sviluppo : Alexandra Zaïnal
Concezione : Baudouin d'Aumeries
Aiuto per la programmazione : Marc-Olivier Méhu
Supporto tecnico e logistico : Manuel Goepfert
Aiuto per la traduzione : Arnaldo La Scala

Contatto : metmap@orbifly.com




FONTI E CREDITI :

   NOAA